createdAt,value
2018-01-23T00:01:59.385Z,49.13
2018-01-23T00:04:31.876Z,49.80
2018-01-23T00:09:43.924Z,48.57
2018-01-23T00:14:56.838Z,48.70
2018-01-23T00:17:24.514Z,52.83
2018-01-23T00:19:51.247Z,47.10
2018-01-23T00:41:50.345Z,43.00
2018-01-23T00:44:18.114Z,45.03
2018-01-23T00:46:44.814Z,45.97
2018-01-23T00:49:11.567Z,45.77
2018-01-23T00:51:39.301Z,44.83
2018-01-23T00:54:07.011Z,44.50
2018-01-23T00:56:34.754Z,46.20
2018-01-23T00:59:01.485Z,43.77
2018-01-23T01:01:29.150Z,45.27
2018-01-23T01:03:55.919Z,46.10
2018-01-23T01:06:23.546Z,42.73
2018-01-23T01:08:51.265Z,44.93
2018-01-23T01:11:18.021Z,45.53
2018-01-23T01:13:48.769Z,45.17
2018-01-23T01:16:16.459Z,45.03
2018-01-23T01:18:43.175Z,43.67
2018-01-23T01:21:10.875Z,43.07
2018-01-23T01:23:38.551Z,40.57
2018-01-23T01:26:07.123Z,42.90
2018-01-23T01:28:34.795Z,46.07
2018-01-23T01:31:02.459Z,43.37
2018-01-23T01:33:30.147Z,42.03
2018-01-23T01:35:56.931Z,40.80
2018-01-23T01:38:24.183Z,39.43
2018-01-23T01:40:51.955Z,42.93
2018-01-23T01:43:18.741Z,41.20
2018-01-23T01:45:46.431Z,40.90
2018-01-23T01:48:13.169Z,37.80
2018-01-23T01:50:39.907Z,40.30
2018-01-23T01:53:10.529Z,37.60
2018-01-23T01:55:38.241Z,42.23
2018-01-23T01:58:04.961Z,38.67
2018-01-23T02:00:31.685Z,37.67
2018-01-23T02:02:59.427Z,38.30
2018-01-23T02:05:26.145Z,39.37
2018-01-23T02:07:53.267Z,37.20
2018-01-23T02:10:20.993Z,38.60
2018-01-23T02:12:48.717Z,38.23
2018-01-23T02:15:15.445Z,34.90
2018-01-23T02:17:43.151Z,36.30
2018-01-23T02:20:10.893Z,37.47
2018-01-23T02:22:38.895Z,34.20
2018-01-23T02:25:06.711Z,37.10
2018-01-23T02:27:34.393Z,37.27
2018-01-23T02:30:01.159Z,36.00
2018-01-23T02:32:31.883Z,35.10
2018-01-23T02:34:58.623Z,37.00
2018-01-23T02:37:25.355Z,35.27
2018-01-23T02:39:52.148Z,34.00
2018-01-23T02:42:18.880Z,34.87
2018-01-23T02:44:46.612Z,34.07
2018-01-23T02:47:13.393Z,34.33
2018-01-23T02:49:41.028Z,34.07
2018-01-23T02:52:07.954Z,33.20
2018-01-23T02:54:36.712Z,34.77
2018-01-23T02:57:04.425Z,34.23
2018-01-23T02:59:32.089Z,32.07
2018-01-23T03:02:00.823Z,33.27
2018-01-23T03:04:29.468Z,34.27
2018-01-23T03:06:57.153Z,33.17
2018-01-23T03:09:25.034Z,35.80
2018-01-23T03:11:53.294Z,34.73
2018-01-23T03:14:20.949Z,33.63
2018-01-23T03:16:48.675Z,35.00
2018-01-23T03:19:15.412Z,33.70
2018-01-23T03:21:42.102Z,35.03
2018-01-23T03:24:08.818Z,36.60
2018-01-23T03:26:36.541Z,33.63
2018-01-23T03:29:03.382Z,34.27
2018-01-23T03:31:30.178Z,39.97
2018-01-23T03:33:57.908Z,39.10
2018-01-23T03:36:25.648Z,43.27
2018-01-23T03:38:52.408Z,44.53
2018-01-23T03:41:19.148Z,48.53
2018-01-23T03:43:46.566Z,40.90
2018-01-23T03:46:13.334Z,37.73
2018-01-23T03:48:42.040Z,45.80
2018-01-23T03:51:10.724Z,46.63
2018-01-23T03:53:38.481Z,46.53
2018-01-23T03:56:06.178Z,48.60
2018-01-23T03:58:32.918Z,38.53
2018-01-23T04:00:59.682Z,37.60
2018-01-23T04:03:27.424Z,39.57
2018-01-23T04:06:00.110Z,35.87
2018-01-23T04:08:26.842Z,35.00
2018-01-23T04:10:55.774Z,34.43
2018-01-23T04:13:23.526Z,36.63
2018-01-23T04:15:50.254Z,35.83
2018-01-23T04:18:17.002Z,36.83
2018-01-23T04:20:47.796Z,35.90
2018-01-23T04:23:18.674Z,37.20
2018-01-23T04:25:46.352Z,35.30
2018-01-23T04:28:13.106Z,35.57
2018-01-23T04:30:39.850Z,33.83
2018-01-23T04:33:08.530Z,35.50
2018-01-23T04:35:36.154Z,38.23
2018-01-23T04:38:03.858Z,37.93
2018-01-23T04:40:31.522Z,35.60
2018-01-23T04:42:59.226Z,38.60
2018-01-23T04:45:27.900Z,38.80
2018-01-23T04:47:55.632Z,36.20
2018-01-23T04:50:23.318Z,36.70
2018-01-23T04:52:50.989Z,34.70
2018-01-23T04:55:18.752Z,34.40
2018-01-23T04:57:56.058Z,37.37
2018-01-23T05:00:24.722Z,35.67
2018-01-23T05:02:52.395Z,34.80
2018-01-23T05:05:19.116Z,36.20
2018-01-23T05:07:45.790Z,36.20
2018-01-23T05:10:13.432Z,36.93
2018-01-23T05:12:40.131Z,35.20
2018-01-23T05:15:06.872Z,36.47
2018-01-23T05:17:33.580Z,37.20
2018-01-23T05:20:02.296Z,39.93
2018-01-23T05:22:30.994Z,37.43
2018-01-23T05:24:58.717Z,39.13
2018-01-23T05:27:25.437Z,38.47
2018-01-23T05:29:53.186Z,38.10
2018-01-23T05:32:20.910Z,38.83
2018-01-23T05:34:48.596Z,39.50
2018-01-23T05:37:16.603Z,40.33
2018-01-23T05:39:43.287Z,38.20
2018-01-23T05:42:11.019Z,37.80
2018-01-23T05:44:38.731Z,37.43
2018-01-23T05:47:06.400Z,35.17
2018-01-23T05:49:34.193Z,38.17
2018-01-23T05:52:01.925Z,38.97
2018-01-23T05:54:30.619Z,36.20
2018-01-23T05:56:58.325Z,36.67
2018-01-23T05:59:26.983Z,38.10
2018-01-23T06:01:53.735Z,37.30
2018-01-23T06:04:20.498Z,39.97
2018-01-23T06:06:48.465Z,39.13
2018-01-23T06:09:16.191Z,39.43
2018-01-23T06:11:43.888Z,38.33
2018-01-23T06:14:10.659Z,41.27
2018-01-23T06:16:37.383Z,43.30
2018-01-23T06:19:04.163Z,42.93
2018-01-23T06:21:32.757Z,43.27
2018-01-23T06:23:59.457Z,46.53
2018-01-23T06:26:27.069Z,43.83
2018-01-23T06:28:55.793Z,45.80
2018-01-23T06:31:22.967Z,46.03
2018-01-23T06:33:49.772Z,47.37
2018-01-23T06:36:17.458Z,45.17
2018-01-23T06:38:44.235Z,46.97
2018-01-23T06:41:11.873Z,46.90
2018-01-23T06:43:38.615Z,45.67
2018-01-23T06:46:05.385Z,44.90
2018-01-23T06:48:34.063Z,47.10
2018-01-23T06:51:00.805Z,42.57
2018-01-23T06:53:27.545Z,46.10
2018-01-23T06:55:55.230Z,45.10
2018-01-23T06:58:25.224Z,41.13
2018-01-23T07:00:52.891Z,41.43
2018-01-23T07:03:21.785Z,40.83
2018-01-23T07:05:50.562Z,43.37
2018-01-23T07:08:18.265Z,42.33
2018-01-23T07:10:45.921Z,44.63
2018-01-23T07:13:12.659Z,49.27
2018-01-23T07:15:39.404Z,45.57
2018-01-23T07:18:06.233Z,47.03
2018-01-23T07:20:33.907Z,48.23
2018-01-23T07:23:00.674Z,49.97
2018-01-23T07:25:28.385Z,48.00
2018-01-23T07:27:55.459Z,49.10
2018-01-23T07:30:23.153Z,48.80
2018-01-23T07:32:50.823Z,49.03
2018-01-23T07:35:29.191Z,48.37
2018-01-23T07:37:56.941Z,49.13
2018-01-23T07:40:24.667Z,48.60
2018-01-23T07:42:53.349Z,45.87
2018-01-23T07:45:20.601Z,45.40
2018-01-23T07:47:48.267Z,44.07
2018-01-23T07:50:15.933Z,43.60
2018-01-23T07:52:45.399Z,41.33
2018-01-23T07:55:14.196Z,41.93
2018-01-23T07:57:41.980Z,40.70
2018-01-23T08:00:09.717Z,39.93
2018-01-23T08:02:37.453Z,38.47
2018-01-23T08:05:05.113Z,39.10
2018-01-23T08:07:32.809Z,39.00
2018-01-23T08:09:59.503Z,38.80
2018-01-23T08:12:27.203Z,39.17
2018-01-23T08:14:53.985Z,40.00
2018-01-23T08:17:21.735Z,42.73
2018-01-23T08:19:48.711Z,42.97
2018-01-23T08:22:15.425Z,42.80
2018-01-23T08:24:42.131Z,40.57
2018-01-23T08:27:09.803Z,41.97
2018-01-23T08:29:36.555Z,45.90
2018-01-23T08:32:05.247Z,41.63
2018-01-23T08:34:32.051Z,41.27
2018-01-23T08:37:00.813Z,39.77
2018-01-23T08:39:28.549Z,42.23
2018-01-23T08:41:55.261Z,43.07
2018-01-23T08:44:22.983Z,43.60
2018-01-23T08:46:50.713Z,44.77
2018-01-23T08:49:18.393Z,42.93
2018-01-23T08:51:45.147Z,42.20
2018-01-23T08:54:11.860Z,41.17
2018-01-23T08:56:39.597Z,43.03
2018-01-23T08:59:06.303Z,41.83
2018-01-23T09:01:33.965Z,40.07
2018-01-23T09:04:00.749Z,40.20
2018-01-23T09:06:27.493Z,41.03
2018-01-23T09:08:54.178Z,43.07
2018-01-23T09:11:21.847Z,43.23
2018-01-23T09:13:49.547Z,41.67
2018-01-23T09:16:17.277Z,41.47
2018-01-23T09:18:45.969Z,42.23
2018-01-23T09:21:13.654Z,41.03
2018-01-23T09:23:40.387Z,40.07
2018-01-23T09:26:08.041Z,41.30
2018-01-23T09:28:35.783Z,39.20
2018-01-23T09:31:03.491Z,39.37
2018-01-23T09:33:31.167Z,38.83
2018-01-23T09:35:57.934Z,36.83
2018-01-23T09:38:25.755Z,38.53
2018-01-23T09:40:53.441Z,39.40
2018-01-23T09:43:20.241Z,37.40
2018-01-23T09:45:47.944Z,38.43
2018-01-23T09:48:14.643Z,38.80
2018-01-23T09:50:42.371Z,37.00
2018-01-23T09:53:09.091Z,37.30
2018-01-23T09:55:40.697Z,37.70
2018-01-23T09:58:08.473Z,37.67
2018-01-23T10:00:39.155Z,37.03
2018-01-23T10:03:05.856Z,38.90
2018-01-23T10:05:33.616Z,38.63
2018-01-23T10:08:00.780Z,38.57
2018-01-23T10:10:27.521Z,41.53
2018-01-23T10:12:55.277Z,38.07
2018-01-23T10:15:36.105Z,41.73
2018-01-23T10:18:02.808Z,43.30
2018-01-23T10:20:31.501Z,44.63
2018-01-23T10:23:00.813Z,43.47
2018-01-23T10:25:37.809Z,41.20
2018-01-23T10:28:05.517Z,39.43
2018-01-23T10:30:34.211Z,37.83
2018-01-23T10:33:00.945Z,37.50
2018-01-23T10:35:28.604Z,37.70
2018-01-23T10:37:56.275Z,37.57
2018-01-23T10:40:23.064Z,38.00
2018-01-23T10:42:51.715Z,41.33
2018-01-23T10:45:19.379Z,41.73
2018-01-23T10:47:46.125Z,45.47
2018-01-23T10:50:17.977Z,51.23
2018-01-23T10:52:46.705Z,53.67
2018-01-23T10:55:15.349Z,53.50
2018-01-23T10:57:43.117Z,51.63
2018-01-23T11:00:10.902Z,47.33
2018-01-23T11:02:39.591Z,50.33
2018-01-23T11:05:08.088Z,48.83
2018-01-23T11:07:34.885Z,47.83
2018-01-23T11:10:02.717Z,47.30
2018-01-23T11:12:31.385Z,49.40
2018-01-23T11:15:00.085Z,49.93
2018-01-23T11:17:27.717Z,48.33
2018-01-23T11:19:56.329Z,49.70
2018-01-23T11:22:25.828Z,50.37
2018-01-23T11:24:53.506Z,50.00
2018-01-23T11:27:20.252Z,50.37
2018-01-23T11:29:48.967Z,49.80
2018-01-23T11:32:15.710Z,50.87
2018-01-23T11:34:43.454Z,52.60
2018-01-23T11:37:11.632Z,52.57
2018-01-23T11:39:38.315Z,53.40
2018-01-23T11:42:09.909Z,54.40
2018-01-23T11:44:37.623Z,55.83
2018-01-23T11:47:06.289Z,54.20
2018-01-23T11:49:37.772Z,51.43
2018-01-23T11:57:48.118Z,49.73
2018-01-23T12:00:15.823Z,49.20
2018-01-23T12:02:49.311Z,50.23
2018-01-23T12:08:03.248Z,54.27
2018-01-23T12:10:30.987Z,51.40
2018-01-23T12:12:57.743Z,52.50
2018-01-23T12:15:25.465Z,54.23
2018-01-23T12:17:52.749Z,54.50
2018-01-23T12:20:19.466Z,54.23
2018-01-23T12:22:47.121Z,57.90
2018-01-23T12:25:13.826Z,57.70
2018-01-23T12:27:40.509Z,57.50
2018-01-23T12:30:08.177Z,58.20
2018-01-23T12:32:34.882Z,56.47
2018-01-23T12:35:02.652Z,57.90
2018-01-23T12:37:30.647Z,62.60
2018-01-23T12:39:58.357Z,61.77
2018-01-23T12:42:25.080Z,66.53
2018-01-23T12:44:52.744Z,66.37
2018-01-23T12:47:21.505Z,69.87
2018-01-23T12:49:49.226Z,65.53
2018-01-23T12:52:15.942Z,68.40
2018-01-23T12:54:43.657Z,69.97
2018-01-23T12:57:11.374Z,69.40
2018-01-23T12:59:39.044Z,71.70
2018-01-23T13:02:05.822Z,74.57
2018-01-23T13:04:32.511Z,73.27
2018-01-23T13:07:00.189Z,76.27
2018-01-23T13:09:27.931Z,78.43
2018-01-23T13:11:54.635Z,79.00
2018-01-23T13:14:22.290Z,80.03
2018-01-23T13:16:49.035Z,83.23
2018-01-23T13:19:15.835Z,83.17
2018-01-23T13:21:43.546Z,87.60
2018-01-23T13:24:10.298Z,94.37
2018-01-23T13:26:37.024Z,100.17
2018-01-23T13:29:05.751Z,103.17
2018-01-23T13:31:32.470Z,101.23
2018-01-23T13:33:59.191Z,99.87
2018-01-23T13:36:26.870Z,98.60
2018-01-23T13:38:53.906Z,99.50
2018-01-23T13:41:22.637Z,100.07
2018-01-23T13:43:51.294Z,100.80
2018-01-23T13:46:19.274Z,101.43
2018-01-23T13:48:46.942Z,101.97
2018-01-23T13:51:13.680Z,102.80
2018-01-23T13:53:42.403Z,105.40
2018-01-23T13:56:10.150Z,100.83
2018-01-23T13:58:37.842Z,98.63
2018-01-23T14:01:06.556Z,100.60
2018-01-23T14:03:33.607Z,97.90
2018-01-23T14:06:00.312Z,99.83
2018-01-23T14:08:27.049Z,100.03
2018-01-23T14:10:53.774Z,101.07
2018-01-23T14:13:20.485Z,108.20
2018-01-23T14:15:48.206Z,113.03
2018-01-23T14:18:14.930Z,108.83
2018-01-23T14:20:42.602Z,112.23
2018-01-23T14:23:10.286Z,103.53
2018-01-23T14:25:37.922Z,103.30
2018-01-23T14:28:05.608Z,101.77
2018-01-23T14:30:33.304Z,111.13
2018-01-23T14:33:01.054Z,109.90
2018-01-23T14:35:27.746Z,107.07
2018-01-23T14:37:55.482Z,107.40
2018-01-23T14:40:23.224Z,106.43
2018-01-23T14:42:49.956Z,109.57
2018-01-23T14:45:16.824Z,106.13
2018-01-23T14:47:43.548Z,107.83
2018-01-23T14:50:10.339Z,108.40
2018-01-23T14:52:38.994Z,111.40
2018-01-23T14:55:05.744Z,109.53
2018-01-23T14:57:34.428Z,110.07
2018-01-23T15:00:01.182Z,109.23
2018-01-23T15:02:28.622Z,106.57
2018-01-23T15:04:55.358Z,107.33
2018-01-23T15:07:23.056Z,109.67
2018-01-23T15:09:49.790Z,110.30
2018-01-23T15:12:16.512Z,113.63
2018-01-23T15:14:44.198Z,113.50
2018-01-23T15:17:12.889Z,118.37
2018-01-23T15:19:43.623Z,115.97
2018-01-23T15:22:11.328Z,111.13
2018-01-23T15:24:39.099Z,108.27
2018-01-23T15:27:06.830Z,102.37
2018-01-23T15:29:33.998Z,99.63
2018-01-23T15:32:01.659Z,97.37
2018-01-23T15:34:28.386Z,97.23
2018-01-23T15:36:56.066Z,103.80
2018-01-23T15:39:22.789Z,106.20
2018-01-23T15:41:50.478Z,110.40
2018-01-23T15:44:17.237Z,111.30
2018-01-23T15:46:45.093Z,113.63
2018-01-23T15:49:11.881Z,111.50
2018-01-23T15:51:39.617Z,116.00
2018-01-23T15:54:07.548Z,115.40
2018-01-23T15:56:39.228Z,115.40
2018-01-23T15:59:05.993Z,111.37
2018-01-23T16:01:33.804Z,111.57
2018-01-23T16:04:01.508Z,110.40
2018-01-23T16:06:28.306Z,111.73
2018-01-23T16:08:56.039Z,117.73
2018-01-23T16:11:22.950Z,120.93
2018-01-23T16:13:50.634Z,115.70
2018-01-23T16:16:18.296Z,119.63
2018-01-23T16:18:45.996Z,118.70
2018-01-23T16:21:13.754Z,120.87
2018-01-23T16:23:40.495Z,122.80
2018-01-23T16:26:08.157Z,115.33
2018-01-23T16:28:35.831Z,118.83
2018-01-23T16:31:04.505Z,118.83
2018-01-23T16:33:31.247Z,120.30
2018-01-23T16:35:58.000Z,117.57
2018-01-23T16:38:24.765Z,116.77
2018-01-23T16:40:52.799Z,113.47
2018-01-23T16:43:20.937Z,109.53
2018-01-23T16:45:48.653Z,114.57
2018-01-23T16:48:15.405Z,109.57
2018-01-23T16:50:42.206Z,109.73
2018-01-23T16:53:08.908Z,113.27
2018-01-23T16:55:36.653Z,116.57
2018-01-23T16:58:04.380Z,121.07
2018-01-23T17:00:31.172Z,111.77
2018-01-23T17:02:58.838Z,120.87
2018-01-23T17:05:25.560Z,116.30
2018-01-23T17:07:52.313Z,116.87
2018-01-23T17:10:20.065Z,115.47
2018-01-23T17:12:47.802Z,116.87
2018-01-23T17:15:15.603Z,112.27
2018-01-23T17:17:43.291Z,109.53
2018-01-23T17:20:10.981Z,116.17
2018-01-23T17:22:38.727Z,116.43
2018-01-23T17:25:05.471Z,120.53
2018-01-23T17:27:34.206Z,127.50
2018-01-23T17:30:01.179Z,128.13
2018-01-23T17:32:28.069Z,131.60
2018-01-23T17:34:55.789Z,131.63
2018-01-23T17:37:23.492Z,124.87
2018-01-23T17:39:51.156Z,128.20
2018-01-23T17:42:18.895Z,125.00
2018-01-23T17:44:46.643Z,127.23
2018-01-23T17:47:15.389Z,130.00
2018-01-23T17:49:43.111Z,125.47
2018-01-23T17:52:10.835Z,127.97
2018-01-23T17:54:37.559Z,132.57
2018-01-23T17:57:04.430Z,135.27
2018-01-23T17:59:35.226Z,126.17
2018-01-23T18:02:03.185Z,126.93
2018-01-23T18:04:30.931Z,131.50
2018-01-23T18:06:58.667Z,137.93
2018-01-23T18:09:25.436Z,137.73
2018-01-23T18:11:53.265Z,128.83
2018-01-23T18:14:24.757Z,135.97
2018-01-23T18:16:53.477Z,136.27
2018-01-23T18:19:39.075Z,141.77
2018-01-23T18:22:06.822Z,141.53
2018-01-23T18:24:34.586Z,136.00
2018-01-23T18:27:01.312Z,131.70
2018-01-23T18:29:28.069Z,124.87
2018-01-23T18:31:55.927Z,119.77
2018-01-23T18:34:22.663Z,118.80
2018-01-23T18:36:49.438Z,116.57
2018-01-23T18:39:17.167Z,117.87
2018-01-23T18:41:46.168Z,113.90
2018-01-23T18:44:13.867Z,116.43
2018-01-23T18:46:41.593Z,120.23
2018-01-23T18:49:08.350Z,116.13
2018-01-23T18:51:35.144Z,115.63
2018-01-23T18:54:01.860Z,112.57
2018-01-23T18:56:29.610Z,114.67
2018-01-23T18:58:56.373Z,114.67
2018-01-23T19:01:24.173Z,115.93
2018-01-23T19:06:47.925Z,117.03
2018-01-23T19:12:01.799Z,112.90
2018-01-23T19:14:45.791Z,114.63
2018-01-23T19:17:14.523Z,112.47
2018-01-23T19:19:41.324Z,110.90
2018-01-23T19:22:08.043Z,115.67
2018-01-23T19:24:34.741Z,109.43
2018-01-23T19:27:01.493Z,110.20
2018-01-23T19:29:28.720Z,104.07
2018-01-23T19:31:56.003Z,95.90
2018-01-23T19:34:22.799Z,103.43
2018-01-23T19:36:49.733Z,98.70
2018-01-23T19:39:16.685Z,98.43
2018-01-23T19:41:43.734Z,101.33
2018-01-23T19:44:11.773Z,103.17
2018-01-23T19:46:40.555Z,104.17
2018-01-23T19:49:07.377Z,103.83
2018-01-23T19:51:35.155Z,108.73
2018-01-23T19:54:02.841Z,106.37
2018-01-23T19:56:30.593Z,107.07
2018-01-23T19:58:58.889Z,105.23
2018-01-23T20:01:25.894Z,106.93
2018-01-23T20:03:54.882Z,109.27
2018-01-23T20:06:23.635Z,108.97
2018-01-23T20:08:50.396Z,108.33
2018-01-23T20:11:17.462Z,110.40
2018-01-23T20:13:44.561Z,111.43
2018-01-23T20:16:11.317Z,106.00
2018-01-23T20:18:39.081Z,104.60
2018-01-23T20:21:07.020Z,105.77
2018-01-23T20:23:34.736Z,106.87
2018-01-23T20:26:06.535Z,109.53
2018-01-23T20:28:34.539Z,117.53
2018-01-23T20:31:02.247Z,109.77
2018-01-23T20:33:29.014Z,112.17
2018-01-23T20:35:56.775Z,112.03
2018-01-23T20:38:24.449Z,113.90
2018-01-23T20:40:51.209Z,113.37
2018-01-23T20:43:18.927Z,115.47
2018-01-23T20:45:46.587Z,112.07
2018-01-23T20:48:15.322Z,122.33
2018-01-23T20:50:43.026Z,119.67
2018-01-23T20:53:10.950Z,123.07
2018-01-23T20:55:39.650Z,124.90
2018-01-23T20:58:07.401Z,122.93
2018-01-23T21:00:34.126Z,118.47
2018-01-23T21:03:02.552Z,122.20
2018-01-23T21:05:30.365Z,121.53
2018-01-23T21:07:57.085Z,117.40
2018-01-23T21:10:24.804Z,116.80
2018-01-23T21:12:51.571Z,108.00
2018-01-23T21:15:18.374Z,109.10
2018-01-23T21:17:46.061Z,110.57
2018-01-23T21:20:12.844Z,118.30
2018-01-23T21:22:43.724Z,113.60
2018-01-23T21:25:12.444Z,113.10
2018-01-23T21:27:39.818Z,110.87
2018-01-23T21:30:08.520Z,112.03
2018-01-23T21:32:36.287Z,115.87
2018-01-23T21:35:03.994Z,118.37
2018-01-23T21:37:31.677Z,121.30
2018-01-23T21:39:59.405Z,117.30
2018-01-23T21:42:26.189Z,115.93
2018-01-23T21:44:53.026Z,115.73
2018-01-23T21:47:20.741Z,111.20
2018-01-23T21:49:51.507Z,109.00
2018-01-23T21:52:18.208Z,110.50
2018-01-23T21:54:44.984Z,110.70
2018-01-23T21:57:12.713Z,118.80
2018-01-23T21:59:39.437Z,109.67
2018-01-23T22:02:07.188Z,115.00
2018-01-23T22:04:36.182Z,111.97
2018-01-23T22:07:03.906Z,111.20
2018-01-23T22:09:31.648Z,113.43
2018-01-23T22:11:58.673Z,115.97
2018-01-23T22:14:27.361Z,113.87
2018-01-23T22:16:54.151Z,117.10
2018-01-23T22:19:20.867Z,122.87
2018-01-23T22:21:49.603Z,131.77
2018-01-23T22:24:17.353Z,129.23
2018-01-23T22:26:44.994Z,129.93
2018-01-23T22:29:12.656Z,135.13
2018-01-23T22:31:40.362Z,134.33
2018-01-23T22:34:08.089Z,130.67
2018-01-23T22:36:35.776Z,134.57
2018-01-23T22:39:02.537Z,128.57
2018-01-23T22:41:35.507Z,127.83
2018-01-23T22:44:02.317Z,127.43
2018-01-23T22:46:31.027Z,127.07
2018-01-23T22:48:59.711Z,136.17
2018-01-23T22:51:27.629Z,134.67
2018-01-23T22:53:55.455Z,130.57
2018-01-23T22:56:23.165Z,130.13
2018-01-23T22:58:50.940Z,138.10
2018-01-23T23:01:18.669Z,138.50
2018-01-23T23:03:47.368Z,145.17
2018-01-23T23:06:14.112Z,152.30
2018-01-23T23:08:40.846Z,152.50
2018-01-23T23:11:08.542Z,147.23
2018-01-23T23:13:35.329Z,147.63
2018-01-23T23:16:03.027Z,142.67
2018-01-23T23:18:29.780Z,132.10
2018-01-23T23:20:56.541Z,128.33
2018-01-23T23:23:24.283Z,134.50
2018-01-23T23:25:51.930Z,132.60
2018-01-23T23:28:19.657Z,129.67
2018-01-23T23:30:47.389Z,124.67
2018-01-23T23:33:15.041Z,121.87
2018-01-23T23:35:42.779Z,121.63
2018-01-23T23:38:10.486Z,119.93
2018-01-23T23:40:39.071Z,113.97
2018-01-23T23:43:07.795Z,113.00
2018-01-23T23:45:35.538Z,116.83
2018-01-23T23:48:02.272Z,107.57
2018-01-23T23:50:29.088Z,113.83
2018-01-23T23:52:58.181Z,114.03
2018-01-23T23:55:25.885Z,118.67
2018-01-23T23:57:53.575Z,115.93
